createdAt,value
2023-03-08T00:00:29.812Z,2.14
2023-03-08T00:02:58.091Z,2.18
2023-03-08T00:05:25.912Z,2.30
2023-03-08T00:07:55.216Z,2.24
2023-03-08T00:10:23.198Z,2.19
2023-03-08T00:12:50.993Z,2.24
2023-03-08T00:15:19.232Z,2.04
2023-03-08T00:17:47.249Z,2.20
2023-03-08T00:20:15.575Z,2.09
2023-03-08T00:22:44.279Z,1.98
2023-03-08T00:25:16.374Z,1.97
2023-03-08T00:27:44.595Z,2.03
2023-03-08T00:30:13.729Z,2.20
2023-03-08T00:32:41.914Z,2.17
2023-03-08T00:35:10.399Z,2.15
2023-03-08T00:37:40.095Z,2.05
2023-03-08T00:40:09.963Z,2.01
2023-03-08T00:42:39.828Z,2.00
2023-03-08T00:45:09.019Z,1.98
2023-03-08T00:47:37.614Z,1.99
2023-03-08T00:50:11.073Z,2.01
2023-03-08T00:52:39.646Z,2.03
2023-03-08T00:55:08.188Z,2.01
2023-03-08T00:57:37.165Z,1.98
2023-03-08T01:00:10.868Z,1.85
2023-03-08T01:02:41.097Z,1.87
2023-03-08T01:05:10.355Z,1.95
2023-03-08T01:07:38.228Z,1.88
2023-03-08T01:10:07.768Z,1.87
2023-03-08T01:12:36.965Z,2.08
2023-03-08T01:15:07.648Z,2.14
2023-03-08T01:17:35.612Z,1.97
2023-03-08T01:20:05.127Z,2.01
2023-03-08T01:22:32.966Z,2.03
2023-03-08T01:25:01.984Z,2.03
2023-03-08T01:27:29.951Z,1.98
2023-03-08T01:29:58.061Z,1.97
2023-03-08T01:32:27.517Z,1.82
2023-03-08T01:34:56.274Z,1.91
2023-03-08T01:37:24.187Z,2.05
2023-03-08T01:39:52.196Z,1.88
2023-03-08T01:42:20.059Z,1.99
2023-03-08T01:44:53.602Z,1.91
2023-03-08T01:47:22.871Z,1.93
2023-03-08T01:50:14.631Z,1.97
2023-03-08T01:52:47.101Z,1.95
2023-03-08T01:55:18.145Z,2.01
2023-03-08T01:57:50.455Z,1.90
2023-03-08T02:00:22.951Z,1.90
2023-03-08T02:02:55.531Z,2.00
2023-03-08T02:05:25.913Z,2.08
2023-03-08T02:07:59.033Z,2.04
2023-03-08T02:10:32.367Z,2.08
2023-03-08T02:13:00.273Z,1.92
2023-03-08T02:15:28.294Z,2.01
2023-03-08T02:17:58.457Z,1.88
2023-03-08T02:20:30.544Z,1.81
2023-03-08T02:23:10.303Z,1.96
2023-03-08T02:25:38.188Z,2.00
2023-03-08T02:28:07.194Z,1.90
2023-03-08T02:30:37.728Z,1.93
2023-03-08T02:33:05.900Z,1.99
2023-03-08T02:35:46.343Z,1.98
2023-03-08T02:38:18.754Z,2.00
2023-03-08T02:40:47.170Z,2.02
2023-03-08T02:43:15.085Z,1.98
2023-03-08T02:45:42.985Z,1.93
2023-03-08T02:48:10.756Z,1.90
2023-03-08T02:50:38.878Z,2.07
2023-03-08T02:53:07.027Z,1.94
2023-03-08T02:55:36.591Z,1.99
2023-03-08T02:58:11.239Z,1.95
2023-03-08T03:00:39.853Z,2.14
2023-03-08T03:03:07.958Z,2.00
2023-03-08T03:05:35.714Z,1.92
2023-03-08T03:08:07.536Z,1.92
2023-03-08T03:13:05.583Z,2.09
2023-03-08T03:15:34.139Z,1.89
2023-03-08T03:18:02.215Z,1.88
2023-03-08T03:20:30.444Z,2.04
2023-03-08T03:22:59.481Z,1.89
2023-03-08T03:25:39.458Z,1.74
2023-03-08T03:28:11.009Z,1.86
2023-03-08T03:30:41.034Z,1.81
2023-03-08T03:33:11.248Z,1.71
2023-03-08T03:35:39.554Z,1.67
2023-03-08T03:38:08.734Z,1.78
2023-03-08T03:40:37.152Z,1.80
2023-03-08T03:43:07.265Z,1.86
2023-03-08T03:45:35.390Z,1.78
2023-03-08T03:48:03.540Z,1.94
2023-03-08T03:50:31.862Z,1.72
2023-03-08T03:53:05.283Z,1.86
2023-03-08T03:55:33.504Z,1.86
2023-03-08T03:58:03.894Z,1.96
2023-03-08T04:00:34.801Z,1.83
2023-03-08T04:03:13.835Z,1.90
2023-03-08T04:05:43.160Z,1.78
2023-03-08T04:08:11.984Z,1.66
2023-03-08T04:10:42.692Z,1.74
2023-03-08T04:13:11.693Z,1.81
2023-03-08T04:15:42.308Z,1.93
2023-03-08T04:18:13.278Z,1.91
2023-03-08T04:20:45.688Z,1.90
2023-03-08T04:23:13.731Z,1.72
2023-03-08T04:25:44.145Z,1.77
2023-03-08T04:28:15.420Z,1.77
2023-03-08T04:30:46.559Z,1.77
2023-03-08T04:33:15.877Z,1.66
2023-03-08T04:35:48.472Z,1.73
2023-03-08T04:38:18.031Z,1.81
2023-03-08T04:41:05.389Z,1.76
2023-03-08T04:43:45.687Z,1.66
2023-03-08T04:46:15.284Z,1.74
2023-03-08T04:48:43.818Z,1.83
2023-03-08T04:51:14.952Z,1.75
2023-03-08T04:53:45.384Z,1.70
2023-03-08T04:56:15.083Z,1.71
2023-03-08T04:58:48.219Z,1.83
2023-03-08T05:01:23.939Z,1.90
2023-03-08T05:03:54.370Z,1.71
2023-03-08T05:06:28.610Z,1.85
2023-03-08T05:08:57.973Z,1.69
2023-03-08T05:11:28.957Z,1.78
2023-03-08T05:14:06.577Z,1.95
2023-03-08T05:16:36.351Z,1.76
2023-03-08T05:19:04.800Z,1.86
2023-03-08T05:21:37.816Z,1.94
2023-03-08T05:24:08.740Z,1.70
2023-03-08T05:26:40.228Z,1.88
2023-03-08T05:29:09.886Z,1.85
2023-03-08T05:31:41.893Z,1.80
2023-03-08T05:34:12.354Z,1.63
2023-03-08T05:36:43.532Z,1.71
2023-03-08T05:39:12.363Z,1.60
2023-03-08T05:42:02.856Z,1.75
2023-03-08T05:44:37.857Z,1.51
2023-03-08T05:47:08.471Z,1.37
2023-03-08T05:49:37.651Z,1.47
2023-03-08T05:52:06.896Z,1.57
2023-03-08T05:54:36.053Z,1.35
2023-03-08T05:57:09.804Z,1.43
2023-03-08T05:59:38.969Z,1.33
2023-03-08T06:02:10.868Z,1.52
2023-03-08T06:04:43.845Z,1.41
2023-03-08T06:07:13.717Z,1.57
2023-03-08T06:09:46.628Z,1.55
2023-03-08T06:12:16.996Z,1.40
2023-03-08T06:14:47.354Z,1.48
2023-03-08T06:17:18.514Z,1.41
2023-03-08T06:19:49.511Z,1.44
2023-03-08T06:22:18.671Z,1.46
2023-03-08T06:24:49.657Z,1.23
2023-03-08T06:27:22.506Z,1.40
2023-03-08T06:29:53.242Z,1.47
2023-03-08T06:32:24.289Z,1.42
2023-03-08T06:34:54.066Z,1.29
2023-03-08T06:37:22.125Z,1.32
2023-03-08T06:39:50.369Z,1.42
2023-03-08T06:42:19.859Z,1.20
2023-03-08T06:44:50.576Z,1.01
2023-03-08T06:47:18.603Z,1.14
2023-03-08T06:49:48.379Z,1.07
2023-03-08T06:52:16.639Z,1.00
2023-03-08T06:54:44.879Z,1.09
2023-03-08T06:57:13.438Z,1.22
2023-03-08T06:59:41.372Z,0.88
2023-03-08T07:02:10.611Z,1.18
2023-03-08T07:04:38.746Z,1.25
2023-03-08T07:07:09.107Z,1.20
2023-03-08T07:09:37.026Z,1.25
2023-03-08T07:12:08.058Z,1.36
2023-03-08T07:14:36.097Z,1.16
2023-03-08T07:17:03.911Z,1.19
2023-03-08T07:19:32.865Z,1.24
2023-03-08T07:22:00.716Z,1.29
2023-03-08T07:24:30.010Z,1.36
2023-03-08T07:26:57.794Z,1.33
2023-03-08T07:29:25.691Z,1.11
2023-03-08T07:31:53.781Z,1.28
2023-03-08T07:34:21.600Z,1.25
2023-03-08T07:36:50.103Z,1.36
2023-03-08T07:39:18.517Z,1.24
2023-03-08T07:41:47.847Z,1.23
2023-03-08T07:44:15.900Z,1.26
2023-03-08T07:46:44.232Z,1.30
2023-03-08T07:49:12.564Z,1.21
2023-03-08T07:51:40.498Z,1.05
2023-03-08T07:54:11.666Z,1.19
2023-03-08T07:56:40.263Z,1.09
2023-03-08T07:59:10.470Z,1.07
2023-03-08T08:01:39.568Z,1.27
2023-03-08T08:04:09.283Z,1.20
2023-03-08T08:06:37.330Z,1.25
2023-03-08T08:09:06.124Z,1.11
2023-03-08T08:11:35.083Z,1.42
2023-03-08T08:14:03.407Z,1.24
2023-03-08T08:16:33.565Z,1.31
2023-03-08T08:19:02.015Z,1.48
2023-03-08T08:21:32.606Z,1.28
2023-03-08T08:24:02.093Z,1.18
2023-03-08T08:26:32.436Z,1.36
2023-03-08T08:29:03.206Z,1.14
2023-03-08T08:31:34.463Z,1.00
2023-03-08T08:34:03.437Z,0.90
2023-03-08T08:36:31.868Z,0.85
2023-03-08T08:38:59.946Z,0.72
2023-03-08T08:41:29.818Z,0.89
2023-03-08T08:44:00.762Z,0.89
2023-03-08T08:46:31.139Z,0.79
2023-03-08T08:49:00.881Z,0.85
2023-03-08T08:51:29.455Z,1.37
2023-03-08T08:53:57.687Z,1.24
2023-03-08T08:56:28.873Z,1.32
2023-03-08T08:59:02.243Z,1.18
2023-03-08T09:01:32.060Z,1.12
2023-03-08T09:04:02.124Z,1.20
2023-03-08T09:06:31.282Z,1.01
2023-03-08T09:09:00.231Z,0.99
2023-03-08T09:11:29.906Z,1.14
2023-03-08T09:13:58.370Z,1.09
2023-03-08T09:16:28.125Z,1.33
2023-03-08T09:18:57.732Z,1.13
2023-03-08T09:21:28.134Z,1.07
2023-03-08T09:23:56.567Z,1.09
2023-03-08T09:26:24.646Z,1.20
2023-03-08T09:28:52.863Z,1.21
2023-03-08T09:31:20.805Z,1.33
2023-03-08T09:33:51.862Z,1.28
2023-03-08T09:36:21.052Z,1.03
2023-03-08T09:38:54.016Z,1.44
2023-03-08T09:41:38.163Z,1.26
2023-03-08T09:44:19.541Z,0.84
2023-03-08T09:46:52.454Z,0.99
2023-03-08T09:49:28.542Z,1.03
2023-03-08T09:52:04.348Z,1.09
2023-03-08T09:54:38.308Z,0.85
2023-03-08T09:57:11.457Z,0.90
2023-03-08T09:59:43.382Z,0.65
2023-03-08T10:02:24.790Z,0.91
2023-03-08T10:05:12.716Z,0.97
2023-03-08T10:07:50.791Z,1.17
2023-03-08T10:10:30.977Z,1.15
2023-03-08T10:13:28.874Z,1.28
2023-03-08T10:16:05.394Z,1.27
2023-03-08T10:18:40.670Z,1.28
2023-03-08T10:21:12.497Z,1.08
2023-03-08T10:23:42.642Z,1.38
2023-03-08T10:26:13.812Z,1.32
2023-03-08T10:28:42.560Z,1.49
2023-03-08T10:31:20.348Z,1.60
2023-03-08T10:33:50.503Z,1.48
2023-03-08T10:36:20.618Z,1.68
2023-03-08T10:38:59.665Z,1.36
2023-03-08T10:41:32.971Z,1.48
2023-03-08T10:44:02.146Z,1.79
2023-03-08T10:46:33.341Z,1.64
2023-03-08T10:49:10.138Z,1.98
2023-03-08T10:51:38.245Z,1.85
2023-03-08T10:54:07.996Z,1.78
2023-03-08T10:56:40.256Z,1.89
2023-03-08T10:59:19.495Z,1.63
2023-03-08T11:01:52.490Z,2.03
2023-03-08T11:04:22.240Z,1.69
2023-03-08T11:06:50.481Z,1.62
2023-03-08T11:09:24.074Z,1.67
2023-03-08T11:11:53.998Z,1.60
2023-03-08T11:14:22.075Z,1.91
2023-03-08T11:16:56.398Z,1.79
2023-03-08T11:19:34.221Z,1.72
2023-03-08T11:22:12.951Z,1.67
2023-03-08T11:24:56.019Z,1.45
2023-03-08T11:27:40.931Z,1.68
2023-03-08T11:30:20.570Z,1.65
2023-03-08T11:32:59.961Z,1.67
2023-03-08T11:35:33.611Z,1.80
2023-03-08T11:38:07.888Z,1.93
2023-03-08T11:40:48.173Z,1.91
2023-03-08T11:43:33.152Z,1.89
2023-03-08T11:46:07.839Z,1.91
2023-03-08T11:48:45.427Z,1.93
2023-03-08T11:51:21.513Z,1.81
2023-03-08T11:54:00.809Z,1.82
2023-03-08T11:56:45.406Z,1.69
2023-03-08T11:59:22.041Z,1.85
2023-03-08T12:01:54.221Z,1.92
2023-03-08T12:04:28.161Z,1.80
2023-03-08T12:06:56.622Z,1.68
2023-03-08T12:09:29.345Z,1.68
2023-03-08T12:12:03.603Z,1.68
2023-03-08T12:14:35.967Z,1.57
2023-03-08T12:17:11.602Z,1.48
2023-03-08T12:19:43.873Z,2.03
2023-03-08T12:22:35.037Z,1.80
2023-03-08T12:25:12.100Z,2.00
2023-03-08T12:27:46.967Z,1.98
2023-03-08T12:30:24.892Z,2.16
2023-03-08T12:32:56.619Z,1.84
2023-03-08T12:35:30.843Z,1.80
2023-03-08T12:38:03.570Z,1.86
2023-03-08T12:40:42.701Z,1.87
2023-03-08T12:43:12.906Z,1.84
2023-03-08T12:45:43.775Z,1.83
2023-03-08T12:48:25.684Z,1.89
2023-03-08T12:51:00.594Z,1.77
2023-03-08T12:53:35.465Z,1.99
2023-03-08T12:56:22.467Z,1.97
2023-03-08T12:58:53.009Z,1.98
2023-03-08T13:01:41.621Z,2.10
2023-03-08T13:04:40.036Z,1.91
2023-03-08T13:07:26.431Z,2.09
2023-03-08T13:10:04.454Z,1.89
2023-03-08T13:12:58.886Z,2.12
2023-03-08T13:15:27.812Z,2.15
2023-03-08T13:18:05.771Z,2.27
2023-03-08T13:20:58.323Z,2.28
2023-03-08T13:23:33.076Z,2.23
2023-03-08T13:26:18.707Z,2.30
2023-03-08T13:28:48.525Z,2.46
2023-03-08T13:31:18.944Z,2.39
2023-03-08T13:33:50.475Z,2.27
2023-03-08T13:36:21.211Z,2.31
2023-03-08T13:39:01.272Z,2.25
2023-03-08T13:41:34.269Z,2.33
2023-03-08T13:44:02.588Z,2.26
2023-03-08T13:46:31.204Z,2.12
2023-03-08T13:49:02.235Z,2.18
2023-03-08T13:51:31.019Z,2.14
2023-03-08T13:53:59.181Z,2.08
2023-03-08T13:56:29.298Z,2.31
2023-03-08T13:59:00.276Z,2.30
2023-03-08T14:01:28.534Z,2.33
2023-03-08T14:03:59.180Z,2.17
2023-03-08T14:06:30.400Z,2.20
2023-03-08T14:09:02.252Z,2.36
2023-03-08T14:11:31.938Z,2.36
2023-03-08T14:14:01.802Z,2.35
2023-03-08T14:16:32.996Z,2.45
2023-03-08T14:19:11.238Z,2.46
2023-03-08T14:21:49.737Z,2.36
2023-03-08T14:24:22.119Z,2.21
2023-03-08T14:26:56.704Z,2.28
2023-03-08T14:29:26.725Z,2.41
2023-03-08T14:32:00.815Z,2.26
2023-03-08T14:34:33.844Z,2.44
2023-03-08T14:37:07.064Z,2.25
2023-03-08T14:39:37.387Z,2.39
2023-03-08T14:42:21.798Z,2.29
2023-03-08T14:44:54.899Z,2.61
2023-03-08T14:47:27.218Z,2.52
2023-03-08T14:50:03.889Z,2.59
2023-03-08T14:52:37.006Z,2.54
2023-03-08T14:55:21.339Z,2.71
2023-03-08T14:57:49.473Z,2.72
2023-03-08T15:00:18.418Z,2.40
2023-03-08T15:02:46.847Z,2.43
2023-03-08T15:05:28.067Z,2.57
2023-03-08T15:08:00.498Z,2.43
2023-03-08T15:10:32.099Z,2.53
2023-03-08T15:13:00.884Z,2.35
2023-03-08T15:15:28.702Z,2.44
2023-03-08T15:17:56.681Z,2.68
2023-03-08T15:20:25.125Z,2.64
2023-03-08T15:22:56.483Z,2.40
2023-03-08T15:25:28.342Z,2.64
2023-03-08T15:27:56.606Z,2.56
2023-03-08T15:30:26.548Z,2.49
2023-03-08T15:32:57.311Z,2.29
2023-03-08T15:35:26.425Z,2.33
2023-03-08T15:37:54.546Z,2.39
2023-03-08T15:40:26.153Z,2.50
2023-03-08T15:42:54.439Z,2.38
2023-03-08T15:45:22.625Z,2.38
2023-03-08T15:47:58.621Z,2.39
2023-03-08T15:50:27.354Z,2.35
2023-03-08T15:52:55.860Z,2.40
2023-03-08T15:55:27.413Z,2.56
2023-03-08T15:57:55.551Z,2.51
2023-03-08T16:00:25.297Z,2.57
2023-03-08T16:02:54.192Z,2.64
2023-03-08T16:05:25.120Z,2.61
2023-03-08T16:07:57.342Z,2.64
2023-03-08T16:10:33.249Z,2.66
2023-03-08T16:13:01.966Z,2.59
2023-03-08T16:15:30.313Z,2.78
2023-03-08T16:18:00.665Z,2.61
2023-03-08T16:20:32.288Z,2.76
2023-03-08T16:23:01.180Z,2.66
2023-03-08T16:25:30.713Z,2.53
2023-03-08T16:28:01.042Z,2.45
2023-03-08T16:30:31.085Z,2.56
2023-03-08T16:32:59.446Z,2.54
2023-03-08T16:35:31.061Z,2.57
2023-03-08T16:37:59.087Z,2.53
2023-03-08T16:40:31.019Z,2.49
2023-03-08T16:43:00.371Z,2.60
2023-03-08T16:45:28.139Z,2.64
2023-03-08T16:47:56.053Z,2.58
2023-03-08T16:50:26.346Z,2.58
2023-03-08T16:52:55.345Z,2.59
2023-03-08T16:55:23.640Z,2.56
2023-03-08T16:57:52.459Z,2.50
2023-03-08T17:00:22.713Z,2.59
2023-03-08T17:02:50.595Z,2.56
2023-03-08T17:05:18.703Z,2.64
2023-03-08T17:07:48.206Z,2.70
2023-03-08T17:10:16.120Z,2.58
2023-03-08T17:12:43.857Z,2.63
2023-03-08T17:15:12.907Z,2.51
2023-03-08T17:17:42.355Z,2.56
2023-03-08T17:20:13.904Z,2.67
2023-03-08T17:22:41.771Z,2.68
2023-03-08T17:25:10.443Z,2.58
2023-03-08T17:27:38.379Z,2.54
2023-03-08T17:30:07.596Z,2.59
2023-03-08T17:32:35.800Z,2.48
2023-03-08T17:35:05.648Z,2.20
2023-03-08T17:37:33.427Z,2.42
2023-03-08T17:40:01.523Z,2.37
2023-03-08T17:42:29.433Z,2.38
2023-03-08T17:44:57.179Z,2.35
2023-03-08T17:47:25.045Z,2.40
2023-03-08T17:49:53.020Z,2.45
2023-03-08T17:52:22.578Z,2.47
2023-03-08T17:54:50.391Z,2.51
2023-03-08T17:57:18.857Z,2.53
2023-03-08T17:59:48.161Z,2.52
2023-03-08T18:02:16.576Z,2.45
2023-03-08T18:04:45.179Z,2.32
2023-03-08T18:07:14.020Z,2.49
2023-03-08T18:09:47.202Z,2.56
2023-03-08T18:12:15.262Z,2.41
2023-03-08T18:14:43.578Z,2.58
2023-03-08T18:17:12.189Z,2.53
2023-03-08T18:19:40.690Z,2.47
2023-03-08T18:22:08.861Z,2.35
2023-03-08T18:24:37.104Z,2.36
2023-03-08T18:27:07.832Z,2.34
2023-03-08T18:29:36.645Z,2.40
2023-03-08T18:32:05.493Z,2.23
2023-03-08T18:34:33.279Z,2.37
2023-03-08T18:37:01.072Z,2.36
2023-03-08T18:39:28.937Z,2.23
2023-03-08T18:41:58.128Z,2.37
2023-03-08T18:44:27.381Z,2.33
2023-03-08T18:46:55.145Z,2.22
2023-03-08T18:49:23.028Z,2.30
2023-03-08T18:51:51.043Z,2.41
2023-03-08T18:54:20.852Z,2.38
2023-03-08T18:56:53.598Z,2.32
2023-03-08T18:59:22.385Z,2.26
2023-03-08T19:01:52.277Z,2.40
2023-03-08T19:04:20.370Z,2.33
2023-03-08T19:06:48.368Z,2.49
2023-03-08T19:09:18.156Z,2.45
2023-03-08T19:11:48.020Z,2.58
2023-03-08T19:14:17.288Z,2.52
2023-03-08T19:16:45.808Z,2.45
2023-03-08T19:19:16.838Z,2.24
2023-03-08T19:21:46.411Z,2.34
2023-03-08T19:24:15.406Z,2.33
2023-03-08T19:26:47.144Z,2.18
2023-03-08T19:29:17.345Z,2.24
2023-03-08T19:31:46.472Z,2.18
2023-03-08T19:34:16.050Z,2.24
2023-03-08T19:36:44.994Z,2.16
2023-03-08T19:39:16.296Z,2.23
2023-03-08T19:41:44.619Z,2.18
2023-03-08T19:44:12.493Z,2.22
2023-03-08T19:46:41.038Z,2.28
2023-03-08T19:49:13.128Z,2.12
2023-03-08T19:51:42.681Z,2.27
2023-03-08T19:54:10.698Z,2.37
2023-03-08T19:56:38.528Z,2.35
2023-03-08T19:59:06.719Z,2.41
2023-03-08T20:01:34.936Z,2.31
2023-03-08T20:04:03.959Z,2.31
2023-03-08T20:06:33.912Z,2.26
2023-03-08T20:09:04.477Z,2.37
2023-03-08T20:11:32.865Z,2.35
2023-03-08T20:14:01.220Z,2.29
2023-03-08T20:16:29.654Z,2.30
2023-03-08T20:18:57.757Z,2.45
2023-03-08T20:21:28.312Z,2.35
2023-03-08T20:23:57.572Z,2.35
2023-03-08T20:26:29.283Z,2.49
2023-03-08T20:28:57.500Z,2.47
2023-03-08T20:31:26.287Z,2.31
2023-03-08T20:33:54.115Z,2.41
2023-03-08T20:36:23.660Z,2.45
2023-03-08T20:38:51.683Z,2.51
2023-03-08T20:41:21.471Z,2.33
2023-03-08T20:43:55.339Z,2.33
2023-03-08T20:46:27.377Z,2.37
2023-03-08T20:48:55.389Z,2.26
2023-03-08T20:51:23.955Z,2.33
2023-03-08T20:53:53.568Z,2.28
2023-03-08T20:56:23.429Z,2.37
2023-03-08T20:58:54.916Z,2.14
2023-03-08T21:01:25.086Z,2.36
2023-03-08T21:03:53.404Z,2.34
2023-03-08T21:06:23.508Z,2.50
2023-03-08T21:08:51.464Z,2.45
2023-03-08T21:11:20.234Z,2.61
2023-03-08T21:13:49.349Z,2.53
2023-03-08T21:16:21.098Z,2.23
2023-03-08T21:18:50.695Z,2.27
2023-03-08T21:21:20.445Z,2.11
2023-03-08T21:23:49.875Z,2.09
2023-03-08T21:26:17.615Z,2.20
2023-03-08T21:28:45.378Z,2.30
2023-03-08T21:31:13.782Z,2.30
2023-03-08T21:33:43.057Z,2.29
2023-03-08T21:36:11.543Z,2.34
2023-03-08T21:38:39.571Z,2.29
2023-03-08T21:41:07.427Z,2.34
2023-03-08T21:43:35.200Z,2.38
2023-03-08T21:46:05.343Z,2.04
2023-03-08T21:48:33.230Z,2.35
2023-03-08T21:51:05.427Z,2.06
2023-03-08T21:53:33.547Z,2.05
2023-03-08T21:56:01.366Z,2.08
2023-03-08T21:58:29.228Z,2.24
2023-03-08T22:00:57.199Z,2.10
2023-03-08T22:03:26.564Z,2.38
2023-03-08T22:05:54.477Z,2.11
2023-03-08T22:08:25.162Z,2.09
2023-03-08T22:10:53.197Z,2.23
2023-03-08T22:13:21.451Z,2.12
2023-03-08T22:15:49.413Z,2.15
2023-03-08T22:18:17.182Z,2.18
2023-03-08T22:20:45.205Z,2.15
2023-03-08T22:23:13.046Z,2.05
2023-03-08T22:25:42.230Z,2.35
2023-03-08T22:28:10.042Z,2.13
2023-03-08T22:30:37.898Z,2.02
2023-03-08T22:33:05.586Z,2.22
2023-03-08T22:35:33.393Z,2.18
2023-03-08T22:38:01.243Z,2.18
2023-03-08T22:40:29.197Z,2.24
2023-03-08T22:42:58.370Z,2.24
2023-03-08T22:45:26.134Z,2.28
2023-03-08T22:47:53.954Z,2.17
2023-03-08T22:50:21.897Z,2.38
2023-03-08T22:52:49.729Z,2.29
2023-03-08T22:55:17.542Z,2.32
2023-03-08T22:57:45.380Z,2.27
2023-03-08T23:00:16.535Z,2.27
2023-03-08T23:02:45.927Z,2.31
2023-03-08T23:05:15.132Z,2.45
2023-03-08T23:07:43.064Z,2.40
2023-03-08T23:10:13.671Z,2.40
2023-03-08T23:12:41.746Z,2.13
2023-03-08T23:15:10.470Z,2.21
2023-03-08T23:17:40.329Z,2.27
2023-03-08T23:20:10.716Z,2.28
2023-03-08T23:22:43.955Z,2.28
2023-03-08T23:25:12.781Z,2.23
2023-03-08T23:27:40.812Z,2.20
2023-03-08T23:30:10.789Z,1.99
2023-03-08T23:32:42.483Z,2.21
2023-03-08T23:35:11.947Z,2.14
2023-03-08T23:37:40.603Z,2.12
2023-03-08T23:40:11.519Z,2.24
2023-03-08T23:42:40.550Z,2.23
2023-03-08T23:45:10.187Z,2.21
2023-03-08T23:47:38.126Z,2.29
2023-03-08T23:50:08.590Z,2.21
2023-03-08T23:52:36.354Z,2.22
2023-03-08T23:55:04.443Z,2.20
2023-03-08T23:57:32.436Z,2.18
